sensor_id;sensor_type;location;lat;lon;timestamp;P1;P2;P0
74086;PMS7003;62445;48.406;-4.518;2023-04-16T00:01:14;258.00;228.50;128.50
74086;PMS7003;62445;48.406;-4.518;2023-04-16T00:03:40;244.50;214.75;122.00
74086;PMS7003;62445;48.406;-4.518;2023-04-16T00:06:05;259.00;226.67;117.67
74086;PMS7003;62445;48.406;-4.518;2023-04-16T00:08:31;238.50;218.75;119.75
74086;PMS7003;62445;48.406;-4.518;2023-04-16T00:10:56;247.50;214.00;121.25
74086;PMS7003;62445;48.406;-4.518;2023-04-16T00:13:22;221.67;201.33;108.67
74086;PMS7003;62445;48.406;-4.518;2023-04-16T00:15:47;239.67;212.67;114.33
74086;PMS7003;62445;48.406;-4.518;2023-04-16T00:18:12;227.00;201.33;110.00
74086;PMS7003;62445;48.406;-4.518;2023-04-16T00:20:38;222.25;201.50;113.25
74086;PMS7003;62445;48.406;-4.518;2023-04-16T00:23:03;208.50;186.75;103.50
74086;PMS7003;62445;48.406;-4.518;2023-04-16T00:25:29;205.75;188.50;104.00
74086;PMS7003;62445;48.406;-4.518;2023-04-16T00:27:55;201.50;182.50;102.75
74086;PMS7003;62445;48.406;-4.518;2023-04-16T00:30:21;205.00;188.50;103.75
74086;PMS7003;62445;48.406;-4.518;2023-04-16T00:32:46;200.25;183.25;104.25
74086;PMS7003;62445;48.406;-4.518;2023-04-16T00:35:12;188.67;170.33;89.67
74086;PMS7003;62445;48.406;-4.518;2023-04-16T00:37:37;170.00;153.50;87.50
74086;PMS7003;62445;48.406;-4.518;2023-04-16T00:40:03;189.00;165.50;91.75
74086;PMS7003;62445;48.406;-4.518;2023-04-16T00:42:29;189.00;166.25;92.00
74086;PMS7003;62445;48.406;-4.518;2023-04-16T00:44:54;178.00;165.50;93.50
74086;PMS7003;62445;48.406;-4.518;2023-04-16T00:47:20;169.25;153.25;85.00
74086;PMS7003;62445;48.406;-4.518;2023-04-16T00:49:45;171.00;154.25;87.25
74086;PMS7003;62445;48.406;-4.518;2023-04-16T00:52:11;165.50;156.25;86.25
74086;PMS7003;62445;48.406;-4.518;2023-04-16T00:54:37;169.75;148.75;89.00
74086;PMS7003;62445;48.406;-4.518;2023-04-16T00:57:03;154.25;139.25;82.00
74086;PMS7003;62445;48.406;-4.518;2023-04-16T00:59:30;154.75;141.00;81.25
74086;PMS7003;62445;48.406;-4.518;2023-04-16T01:01:56;153.75;144.25;85.00
74086;PMS7003;62445;48.406;-4.518;2023-04-16T01:04:21;158.00;145.75;86.25
74086;PMS7003;62445;48.406;-4.518;2023-04-16T01:06:47;156.50;139.00;79.75
74086;PMS7003;62445;48.406;-4.518;2023-04-16T01:09:13;144.75;133.75;76.75
74086;PMS7003;62445;48.406;-4.518;2023-04-16T01:11:38;143.50;133.25;77.25
74086;PMS7003;62445;48.406;-4.518;2023-04-16T01:14:03;141.50;123.75;77.00
74086;PMS7003;62445;48.406;-4.518;2023-04-16T01:16:29;139.00;122.00;72.75
74086;PMS7003;62445;48.406;-4.518;2023-04-16T01:18:54;137.50;128.50;73.50
74086;PMS7003;62445;48.406;-4.518;2023-04-16T01:21:20;134.25;121.50;72.50
74086;PMS7003;62445;48.406;-4.518;2023-04-16T01:23:45;133.25;126.00;70.75
74086;PMS7003;62445;48.406;-4.518;2023-04-16T01:26:11;132.50;116.50;70.50
74086;PMS7003;62445;48.406;-4.518;2023-04-16T01:28:36;133.00;115.25;66.50
74086;PMS7003;62445;48.406;-4.518;2023-04-16T01:31:02;112.75;109.50;65.25
74086;PMS7003;62445;48.406;-4.518;2023-04-16T01:33:27;127.00;114.75;66.50
74086;PMS7003;62445;48.406;-4.518;2023-04-16T01:35:52;128.00;114.50;67.00
74086;PMS7003;62445;48.406;-4.518;2023-04-16T01:38:18;129.75;110.50;65.25
74086;PMS7003;62445;48.406;-4.518;2023-04-16T01:40:43;123.25;109.75;62.50
74086;PMS7003;62445;48.406;-4.518;2023-04-16T01:43:09;124.00;113.00;65.00
74086;PMS7003;62445;48.406;-4.518;2023-04-16T01:45:34;113.25;109.25;62.25
74086;PMS7003;62445;48.406;-4.518;2023-04-16T01:48:00;114.75;104.50;56.75
74086;PMS7003;62445;48.406;-4.518;2023-04-16T01:50:26;104.50;96.50;56.25
74086;PMS7003;62445;48.406;-4.518;2023-04-16T01:52:52;114.50;103.00;60.75
74086;PMS7003;62445;48.406;-4.518;2023-04-16T01:55:17;109.25;98.50;57.00
74086;PMS7003;62445;48.406;-4.518;2023-04-16T01:57:43;96.50;89.50;52.00
74086;PMS7003;62445;48.406;-4.518;2023-04-16T02:00:08;111.50;101.00;57.75
74086;PMS7003;62445;48.406;-4.518;2023-04-16T02:02:34;102.50;91.00;52.50
74086;PMS7003;62445;48.406;-4.518;2023-04-16T02:05:00;103.00;90.00;53.00
74086;PMS7003;62445;48.406;-4.518;2023-04-16T02:07:26;95.75;85.75;52.25
74086;PMS7003;62445;48.406;-4.518;2023-04-16T02:09:51;106.00;94.50;52.75
74086;PMS7003;62445;48.406;-4.518;2023-04-16T02:12:17;88.75;80.00;50.75
74086;PMS7003;62445;48.406;-4.518;2023-04-16T02:14:43;94.75;85.50;51.25
74086;PMS7003;62445;48.406;-4.518;2023-04-16T02:17:08;97.75;85.50;51.25
74086;PMS7003;62445;48.406;-4.518;2023-04-16T02:19:34;94.00;86.00;50.75
74086;PMS7003;62445;48.406;-4.518;2023-04-16T02:22:00;91.25;84.00;48.50
74086;PMS7003;62445;48.406;-4.518;2023-04-16T02:24:26;89.75;81.25;47.00
74086;PMS7003;62445;48.406;-4.518;2023-04-16T02:26:51;87.25;79.00;48.50
74086;PMS7003;62445;48.406;-4.518;2023-04-16T02:29:17;92.25;87.00;48.00
74086;PMS7003;62445;48.406;-4.518;2023-04-16T02:31:42;90.75;80.25;47.00
74086;PMS7003;62445;48.406;-4.518;2023-04-16T02:34:08;89.25;81.75;48.75
74086;PMS7003;62445;48.406;-4.518;2023-04-16T02:36:33;87.25;78.50;47.75
74086;PMS7003;62445;48.406;-4.518;2023-04-16T02:38:59;91.50;82.00;48.75
74086;PMS7003;62445;48.406;-4.518;2023-04-16T02:41:24;81.50;70.50;48.50
74086;PMS7003;62445;48.406;-4.518;2023-04-16T02:43:50;87.50;80.00;49.00
74086;PMS7003;62445;48.406;-4.518;2023-04-16T02:46:15;83.50;76.25;48.50
74086;PMS7003;62445;48.406;-4.518;2023-04-16T02:48:41;83.50;71.25;42.75
74086;PMS7003;62445;48.406;-4.518;2023-04-16T02:51:06;79.25;70.50;43.75
74086;PMS7003;62445;48.406;-4.518;2023-04-16T02:53:32;83.00;73.25;42.00
74086;PMS7003;62445;48.406;-4.518;2023-04-16T02:55:57;79.50;65.50;39.25
74086;PMS7003;62445;48.406;-4.518;2023-04-16T02:58:23;77.75;68.75;42.50
74086;PMS7003;62445;48.406;-4.518;2023-04-16T03:00:50;80.25;68.50;39.00
74086;PMS7003;62445;48.406;-4.518;2023-04-16T03:03:16;83.75;70.75;42.25
74086;PMS7003;62445;48.406;-4.518;2023-04-16T03:05:41;80.25;67.25;37.75
74086;PMS7003;62445;48.406;-4.518;2023-04-16T03:08:07;79.25;65.00;40.25
74086;PMS7003;62445;48.406;-4.518;2023-04-16T03:10:33;80.50;65.00;37.25
74086;PMS7003;62445;48.406;-4.518;2023-04-16T03:12:59;78.00;63.50;38.00
74086;PMS7003;62445;48.406;-4.518;2023-04-16T03:15:25;77.00;62.50;39.75
74086;PMS7003;62445;48.406;-4.518;2023-04-16T03:17:51;79.25;66.00;39.75
74086;PMS7003;62445;48.406;-4.518;2023-04-16T03:20:16;76.75;62.50;38.25
74086;PMS7003;62445;48.406;-4.518;2023-04-16T03:22:43;74.00;57.00;36.25
74086;PMS7003;62445;48.406;-4.518;2023-04-16T03:25:08;76.00;61.50;36.25
74086;PMS7003;62445;48.406;-4.518;2023-04-16T03:27:34;73.50;58.00;36.75
74086;PMS7003;62445;48.406;-4.518;2023-04-16T03:29:59;77.25;62.50;37.25
74086;PMS7003;62445;48.406;-4.518;2023-04-16T03:32:25;76.25;60.75;36.00
74086;PMS7003;62445;48.406;-4.518;2023-04-16T03:34:51;63.25;50.00;33.75
74086;PMS7003;62445;48.406;-4.518;2023-04-16T03:37:16;72.00;54.50;35.00
74086;PMS7003;62445;48.406;-4.518;2023-04-16T03:39:41;67.75;53.75;35.00
74086;PMS7003;62445;48.406;-4.518;2023-04-16T03:42:07;72.25;56.25;35.00
74086;PMS7003;62445;48.406;-4.518;2023-04-16T03:44:32;67.00;53.75;35.50
74086;PMS7003;62445;48.406;-4.518;2023-04-16T03:46:58;70.75;55.00;36.00
74086;PMS7003;62445;48.406;-4.518;2023-04-16T03:49:23;72.50;53.25;34.00
74086;PMS7003;62445;48.406;-4.518;2023-04-16T03:51:49;64.75;51.75;33.00
74086;PMS7003;62445;48.406;-4.518;2023-04-16T03:54:15;72.75;54.75;33.25
74086;PMS7003;62445;48.406;-4.518;2023-04-16T03:56:40;67.25;53.25;35.00
74086;PMS7003;62445;48.406;-4.518;2023-04-16T03:59:06;62.50;51.00;33.25
74086;PMS7003;62445;48.406;-4.518;2023-04-16T04:01:31;69.25;53.00;34.50
74086;PMS7003;62445;48.406;-4.518;2023-04-16T04:03:57;63.25;50.75;32.25
74086;PMS7003;62445;48.406;-4.518;2023-04-16T04:06:22;63.75;50.00;31.50
74086;PMS7003;62445;48.406;-4.518;2023-04-16T04:08:47;60.75;50.50;33.25
74086;PMS7003;62445;48.406;-4.518;2023-04-16T04:11:13;62.75;50.75;33.50
74086;PMS7003;62445;48.406;-4.518;2023-04-16T04:13:38;59.75;49.50;31.25
74086;PMS7003;62445;48.406;-4.518;2023-04-16T04:16:04;65.00;48.50;30.75
74086;PMS7003;62445;48.406;-4.518;2023-04-16T04:18:30;62.00;49.25;31.75
74086;PMS7003;62445;48.406;-4.518;2023-04-16T04:20:55;54.25;45.50;29.75
74086;PMS7003;62445;48.406;-4.518;2023-04-16T04:23:21;60.50;48.50;32.50
74086;PMS7003;62445;48.406;-4.518;2023-04-16T04:25:47;57.75;45.50;30.00
74086;PMS7003;62445;48.406;-4.518;2023-04-16T04:28:13;56.50;47.00;28.75
74086;PMS7003;62445;48.406;-4.518;2023-04-16T04:30:38;57.25;47.25;31.00
74086;PMS7003;62445;48.406;-4.518;2023-04-16T04:33:04;63.00;50.00;31.50
74086;PMS7003;62445;48.406;-4.518;2023-04-16T04:35:30;56.25;45.50;28.50
74086;PMS7003;62445;48.406;-4.518;2023-04-16T04:37:55;53.50;43.75;30.00
74086;PMS7003;62445;48.406;-4.518;2023-04-16T04:40:21;57.25;46.75;29.50
74086;PMS7003;62445;48.406;-4.518;2023-04-16T04:42:46;55.50;44.50;29.50
74086;PMS7003;62445;48.406;-4.518;2023-04-16T04:45:12;60.25;44.75;28.75
74086;PMS7003;62445;48.406;-4.518;2023-04-16T04:47:37;56.50;44.25;27.75
74086;PMS7003;62445;48.406;-4.518;2023-04-16T04:50:03;52.25;43.25;27.25
74086;PMS7003;62445;48.406;-4.518;2023-04-16T04:52:28;53.00;43.00;26.50
74086;PMS7003;62445;48.406;-4.518;2023-04-16T04:54:54;53.25;43.00;27.25
74086;PMS7003;62445;48.406;-4.518;2023-04-16T04:57:20;48.25;39.50;24.75
74086;PMS7003;62445;48.406;-4.518;2023-04-16T04:59:45;51.25;42.25;28.25
74086;PMS7003;62445;48.406;-4.518;2023-04-16T05:02:11;52.50;42.00;25.75
74086;PMS7003;62445;48.406;-4.518;2023-04-16T05:04:36;49.50;39.75;27.75
74086;PMS7003;62445;48.406;-4.518;2023-04-16T05:07:02;49.25;39.75;24.25
74086;PMS7003;62445;48.406;-4.518;2023-04-16T05:09:27;48.50;41.50;25.50
74086;PMS7003;62445;48.406;-4.518;2023-04-16T05:11:52;45.75;36.50;23.75
74086;PMS7003;62445;48.406;-4.518;2023-04-16T05:14:18;46.75;37.25;23.75
74086;PMS7003;62445;48.406;-4.518;2023-04-16T05:16:43;53.50;41.25;28.00
74086;PMS7003;62445;48.406;-4.518;2023-04-16T05:19:09;45.00;38.00;24.75
74086;PMS7003;62445;48.406;-4.518;2023-04-16T05:21:34;51.50;41.25;24.75
74086;PMS7003;62445;48.406;-4.518;2023-04-16T05:24:00;46.75;38.50;25.50
74086;PMS7003;62445;48.406;-4.518;2023-04-16T05:26:25;47.50;38.25;24.00
74086;PMS7003;62445;48.406;-4.518;2023-04-16T05:28:51;45.75;37.50;23.75
74086;PMS7003;62445;48.406;-4.518;2023-04-16T05:31:16;43.50;36.50;24.75
74086;PMS7003;62445;48.406;-4.518;2023-04-16T05:33:42;42.50;35.75;23.50
74086;PMS7003;62445;48.406;-4.518;2023-04-16T05:36:07;41.75;36.25;23.50
74086;PMS7003;62445;48.406;-4.518;2023-04-16T05:38:32;38.75;34.00;22.25
74086;PMS7003;62445;48.406;-4.518;2023-04-16T05:40:58;40.25;34.50;22.00
74086;PMS7003;62445;48.406;-4.518;2023-04-16T05:43:23;40.00;35.25;23.50
74086;PMS7003;62445;48.406;-4.518;2023-04-16T05:45:49;37.00;33.25;23.00
74086;PMS7003;62445;48.406;-4.518;2023-04-16T05:48:14;43.75;35.50;23.00
74086;PMS7003;62445;48.406;-4.518;2023-04-16T05:50:40;38.25;34.25;23.50
74086;PMS7003;62445;48.406;-4.518;2023-04-16T05:53:06;41.25;36.50;22.25
74086;PMS7003;62445;48.406;-4.518;2023-04-16T05:55:32;39.25;33.50;21.50
74086;PMS7003;62445;48.406;-4.518;2023-04-16T05:58:00;35.25;34.00;21.75
74086;PMS7003;62445;48.406;-4.518;2023-04-16T06:00:28;41.75;34.25;22.50
74086;PMS7003;62445;48.406;-4.518;2023-04-16T06:02:54;36.75;32.00;21.75
74086;PMS7003;62445;48.406;-4.518;2023-04-16T06:05:19;35.50;29.25;20.00
74086;PMS7003;62445;48.406;-4.518;2023-04-16T06:07:45;33.00;29.75;18.75
74086;PMS7003;62445;48.406;-4.518;2023-04-16T06:10:10;33.00;30.25;20.00
74086;PMS7003;62445;48.406;-4.518;2023-04-16T06:12:36;29.00;26.25;18.25
74086;PMS7003;62445;48.406;-4.518;2023-04-16T06:15:02;28.50;24.50;17.50
74086;PMS7003;62445;48.406;-4.518;2023-04-16T06:17:27;27.75;26.00;18.00
74086;PMS7003;62445;48.406;-4.518;2023-04-16T06:19:53;26.50;24.25;17.75
74086;PMS7003;62445;48.406;-4.518;2023-04-16T06:22:18;23.25;22.75;15.00
74086;PMS7003;62445;48.406;-4.518;2023-04-16T06:24:43;23.00;22.50;15.00
74086;PMS7003;62445;48.406;-4.518;2023-04-16T06:27:09;23.00;23.00;17.00
74086;PMS7003;62445;48.406;-4.518;2023-04-16T06:29:34;25.50;24.50;16.50
74086;PMS7003;62445;48.406;-4.518;2023-04-16T06:32:00;22.25;19.50;12.25
74086;PMS7003;62445;48.406;-4.518;2023-04-16T06:34:27;19.50;19.00;14.00
74086;PMS7003;62445;48.406;-4.518;2023-04-16T06:36:52;19.25;17.75;12.25
74086;PMS7003;62445;48.406;-4.518;2023-04-16T06:39:18;21.25;19.25;14.50
74086;PMS7003;62445;48.406;-4.518;2023-04-16T06:41:46;18.75;17.75;11.00
74086;PMS7003;62445;48.406;-4.518;2023-04-16T06:44:12;22.50;21.75;12.50
74086;PMS7003;62445;48.406;-4.518;2023-04-16T06:46:37;17.75;16.50;10.25
74086;PMS7003;62445;48.406;-4.518;2023-04-16T06:49:02;20.50;17.75;12.75
74086;PMS7003;62445;48.406;-4.518;2023-04-16T06:51:28;18.75;17.75;11.75
74086;PMS7003;62445;48.406;-4.518;2023-04-16T06:53:53;16.75;16.25;12.25
74086;PMS7003;62445;48.406;-4.518;2023-04-16T06:56:19;17.25;16.50;11.25
74086;PMS7003;62445;48.406;-4.518;2023-04-16T06:58:44;18.75;16.00;12.25
74086;PMS7003;62445;48.406;-4.518;2023-04-16T07:01:10;15.75;14.50;10.75
74086;PMS7003;62445;48.406;-4.518;2023-04-16T07:03:35;17.25;16.75;10.75
74086;PMS7003;62445;48.406;-4.518;2023-04-16T07:06:00;16.75;15.75;11.00
74086;PMS7003;62445;48.406;-4.518;2023-04-16T07:08:26;14.25;14.25;10.00
74086;PMS7003;62445;48.406;-4.518;2023-04-16T07:10:52;17.75;13.75;10.25
74086;PMS7003;62445;48.406;-4.518;2023-04-16T07:13:18;11.25;11.25;7.75
74086;PMS7003;62445;48.406;-4.518;2023-04-16T07:15:43;14.25;11.75;9.50
74086;PMS7003;62445;48.406;-4.518;2023-04-16T07:18:09;13.50;11.75;8.50
74086;PMS7003;62445;48.406;-4.518;2023-04-16T07:20:34;12.75;10.75;8.50
74086;PMS7003;62445;48.406;-4.518;2023-04-16T07:23:00;13.50;12.50;9.00
74086;PMS7003;62445;48.406;-4.518;2023-04-16T07:25:26;11.25;10.75;7.50
74086;PMS7003;62445;48.406;-4.518;2023-04-16T07:27:51;10.50;10.50;8.00
74086;PMS7003;62445;48.406;-4.518;2023-04-16T07:30:17;15.00;12.50;10.75
74086;PMS7003;62445;48.406;-4.518;2023-04-16T07:32:42;10.50;9.25;7.75
74086;PMS7003;62445;48.406;-4.518;2023-04-16T07:35:08;11.75;9.50;7.25
74086;PMS7003;62445;48.406;-4.518;2023-04-16T07:37:33;13.75;9.50;7.75
74086;PMS7003;62445;48.406;-4.518;2023-04-16T07:39:58;10.00;8.75;6.75
74086;PMS7003;62445;48.406;-4.518;2023-04-16T07:42:25;7.25;6.50;5.00
74086;PMS7003;62445;48.406;-4.518;2023-04-16T07:44:51;14.00;10.75;8.00
74086;PMS7003;62445;48.406;-4.518;2023-04-16T07:47:17;7.25;7.25;6.00
74086;PMS7003;62445;48.406;-4.518;2023-04-16T07:49:42;8.00;8.00;6.00
74086;PMS7003;62445;48.406;-4.518;2023-04-16T07:52:08;8.50;7.50;5.50
74086;PMS7003;62445;48.406;-4.518;2023-04-16T07:54:33;8.25;8.25;5.50
74086;PMS7003;62445;48.406;-4.518;2023-04-16T07:56:59;9.25;6.00;4.00
74086;PMS7003;62445;48.406;-4.518;2023-04-16T07:59:25;7.50;5.50;5.00
74086;PMS7003;62445;48.406;-4.518;2023-04-16T08:01:51;9.25;8.50;5.50
74086;PMS7003;62445;48.406;-4.518;2023-04-16T08:04:17;11.25;8.25;6.25
74086;PMS7003;62445;48.406;-4.518;2023-04-16T08:06:48;7.25;7.25;5.50
74086;PMS7003;62445;48.406;-4.518;2023-04-16T08:09:13;6.25;6.00;5.25
74086;PMS7003;62445;48.406;-4.518;2023-04-16T08:11:39;14.50;6.50;5.00
74086;PMS7003;62445;48.406;-4.518;2023-04-16T08:14:04;6.50;5.25;4.00
74086;PMS7003;62445;48.406;-4.518;2023-04-16T08:16:30;7.25;6.25;5.00
74086;PMS7003;62445;48.406;-4.518;2023-04-16T08:18:55;6.25;6.00;5.00
74086;PMS7003;62445;48.406;-4.518;2023-04-16T08:21:21;5.75;5.00;4.00
74086;PMS7003;62445;48.406;-4.518;2023-04-16T08:23:46;6.50;5.75;4.75
74086;PMS7003;62445;48.406;-4.518;2023-04-16T08:26:12;8.00;6.25;4.25
74086;PMS7003;62445;48.406;-4.518;2023-04-16T08:28:37;6.75;5.25;4.50
74086;PMS7003;62445;48.406;-4.518;2023-04-16T08:31:03;8.00;5.75;4.75
74086;PMS7003;62445;48.406;-4.518;2023-04-16T08:33:28;8.25;5.00;4.00
74086;PMS7003;62445;48.406;-4.518;2023-04-16T08:35:54;5.25;5.25;3.75
74086;PMS7003;62445;48.406;-4.518;2023-04-16T08:38:19;6.75;5.00;4.00
74086;PMS7003;62445;48.406;-4.518;2023-04-16T08:40:45;7.00;5.75;4.50
74086;PMS7003;62445;48.406;-4.518;2023-04-16T08:43:11;5.00;5.00;4.00
74086;PMS7003;62445;48.406;-4.518;2023-04-16T08:45:39;8.25;6.50;4.75
74086;PMS7003;62445;48.406;-4.518;2023-04-16T08:48:07;3.00;3.00;2.25
74086;PMS7003;62445;48.406;-4.518;2023-04-16T08:50:35;5.00;3.25;2.25
74086;PMS7003;62445;48.406;-4.518;2023-04-16T08:53:05;5.00;5.00;4.00
74086;PMS7003;62445;48.406;-4.518;2023-04-16T08:55:35;4.00;3.75;3.25
74086;PMS7003;62445;48.406;-4.518;2023-04-16T08:58:26;7.75;5.25;3.50
74086;PMS7003;62445;48.406;-4.518;2023-04-16T09:00:53;7.25;5.00;4.00
74086;PMS7003;62445;48.406;-4.518;2023-04-16T09:03:20;5.00;3.75;2.75
74086;PMS7003;62445;48.406;-4.518;2023-04-16T09:05:46;5.00;3.25;2.00
74086;PMS7003;62445;48.406;-4.518;2023-04-16T09:08:13;3.50;3.50;3.00
74086;PMS7003;62445;48.406;-4.518;2023-04-16T09:10:39;6.75;6.75;3.50
74086;PMS7003;62445;48.406;-4.518;2023-04-16T09:13:05;4.50;3.75;3.00
74086;PMS7003;62445;48.406;-4.518;2023-04-16T09:15:32;5.25;3.25;3.00
74086;PMS7003;62445;48.406;-4.518;2023-04-16T09:17:59;3.25;3.25;2.25
74086;PMS7003;62445;48.406;-4.518;2023-04-16T09:20:24;2.75;2.75;2.25
74086;PMS7003;62445;48.406;-4.518;2023-04-16T09:22:50;4.00;4.00;3.75
74086;PMS7003;62445;48.406;-4.518;2023-04-16T09:25:15;3.00;3.00;2.75
74086;PMS7003;62445;48.406;-4.518;2023-04-16T09:27:41;4.50;3.50;2.75
74086;PMS7003;62445;48.406;-4.518;2023-04-16T09:30:23;2.00;2.00;2.00
74086;PMS7003;62445;48.406;-4.518;2023-04-16T09:32:50;4.25;4.25;3.75
74086;PMS7003;62445;48.406;-4.518;2023-04-16T09:35:19;5.00;2.50;2.00
74086;PMS7003;62445;48.406;-4.518;2023-04-16T09:38:03;2.50;2.50;2.00
74086;PMS7003;62445;48.406;-4.518;2023-04-16T09:40:29;3.00;2.50;2.00
74086;PMS7003;62445;48.406;-4.518;2023-04-16T09:42:58;5.25;3.50;2.25
74086;PMS7003;62445;48.406;-4.518;2023-04-16T09:45:24;4.00;3.25;3.00
74086;PMS7003;62445;48.406;-4.518;2023-04-16T09:47:50;4.25;2.00;2.00
74086;PMS7003;62445;48.406;-4.518;2023-04-16T09:50:16;4.25;3.75;3.00
74086;PMS7003;62445;48.406;-4.518;2023-04-16T09:52:44;4.00;4.00;3.00
74086;PMS7003;62445;48.406;-4.518;2023-04-16T09:55:12;3.25;3.25;3.25
74086;PMS7003;62445;48.406;-4.518;2023-04-16T09:57:38;3.00;3.00;2.75
74086;PMS7003;62445;48.406;-4.518;2023-04-16T10:00:04;3.00;3.00;2.50
74086;PMS7003;62445;48.406;-4.518;2023-04-16T10:02:31;2.00;2.00;2.00
74086;PMS7003;62445;48.406;-4.518;2023-04-16T10:04:59;3.25;3.00;2.50
74086;PMS7003;62445;48.406;-4.518;2023-04-16T10:07:30;2.00;2.00;1.50
74086;PMS7003;62445;48.406;-4.518;2023-04-16T10:09:58;4.25;2.75;2.50
74086;PMS7003;62445;48.406;-4.518;2023-04-16T10:12:23;3.00;3.00;2.00
74086;PMS7003;62445;48.406;-4.518;2023-04-16T10:14:49;1.25;1.25;1.00
74086;PMS7003;62445;48.406;-4.518;2023-04-16T10:17:14;2.50;2.50;2.00
74086;PMS7003;62445;48.406;-4.518;2023-04-16T10:19:40;3.00;2.25;1.50
74086;PMS7003;62445;48.406;-4.518;2023-04-16T10:22:06;1.00;1.00;1.00
74086;PMS7003;62445;48.406;-4.518;2023-04-16T10:24:33;3.00;3.00;2.00
74086;PMS7003;62445;48.406;-4.518;2023-04-16T10:26:59;2.00;1.25;1.25
74086;PMS7003;62445;48.406;-4.518;2023-04-16T10:29:26;2.00;2.00;1.75
74086;PMS7003;62445;48.406;-4.518;2023-04-16T10:31:53;1.75;1.75;1.25
74086;PMS7003;62445;48.406;-4.518;2023-04-16T10:34:19;2.00;2.00;2.00
74086;PMS7003;62445;48.406;-4.518;2023-04-16T10:36:47;3.00;3.00;3.00
74086;PMS7003;62445;48.406;-4.518;2023-04-16T10:39:16;2.00;2.00;2.00
74086;PMS7003;62445;48.406;-4.518;2023-04-16T10:42:05;1.00;1.00;0.75
74086;PMS7003;62445;48.406;-4.518;2023-04-16T10:44:35;2.25;2.00;2.00
74086;PMS7003;62445;48.406;-4.518;2023-04-16T10:47:01;4.00;3.25;3.00
74086;PMS7003;62445;48.406;-4.518;2023-04-16T10:49:26;4.00;2.00;1.00
74086;PMS7003;62445;48.406;-4.518;2023-04-16T10:51:56;3.75;3.75;3.00
74086;PMS7003;62445;48.406;-4.518;2023-04-16T10:54:28;2.00;1.75;1.75
74086;PMS7003;62445;48.406;-4.518;2023-04-16T10:56:55;1.00;1.00;1.00
74086;PMS7003;62445;48.406;-4.518;2023-04-16T10:59:23;2.75;2.75;2.25
74086;PMS7003;62445;48.406;-4.518;2023-04-16T11:01:53;2.00;2.00;1.25
74086;PMS7003;62445;48.406;-4.518;2023-04-16T11:15:05;3.75;2.00;2.00
74086;PMS7003;62445;48.406;-4.518;2023-04-16T11:17:35;3.25;2.25;1.50
74086;PMS7003;62445;48.406;-4.518;2023-04-16T11:22:52;4.25;4.00;3.00
74086;PMS7003;62445;48.406;-4.518;2023-04-16T11:25:19;3.00;2.25;2.00
74086;PMS7003;62445;48.406;-4.518;2023-04-16T11:27:48;2.00;2.00;1.00
74086;PMS7003;62445;48.406;-4.518;2023-04-16T11:30:14;3.00;3.00;2.00
74086;PMS7003;62445;48.406;-4.518;2023-04-16T11:32:40;3.00;3.00;2.50
74086;PMS7003;62445;48.406;-4.518;2023-04-16T11:35:12;2.00;2.00;2.00
74086;PMS7003;62445;48.406;-4.518;2023-04-16T11:37:41;3.00;2.00;2.00
74086;PMS7003;62445;48.406;-4.518;2023-04-16T11:40:07;2.25;2.25;2.00
74086;PMS7003;62445;48.406;-4.518;2023-04-16T11:42:34;1.50;1.00;0.25
74086;PMS7003;62445;48.406;-4.518;2023-04-16T11:45:04;4.00;2.50;2.00
74086;PMS7003;62445;48.406;-4.518;2023-04-16T11:47:30;5.00;4.00;3.00
74086;PMS7003;62445;48.406;-4.518;2023-04-16T11:50:14;2.75;1.00;1.00
74086;PMS7003;62445;48.406;-4.518;2023-04-16T11:53:03;3.50;2.00;2.00
74086;PMS7003;62445;48.406;-4.518;2023-04-16T11:55:30;3.00;3.00;3.00
74086;PMS7003;62445;48.406;-4.518;2023-04-16T11:57:55;3.00;3.00;2.75
74086;PMS7003;62445;48.406;-4.518;2023-04-16T12:00:22;3.25;2.75;2.25
74086;PMS7003;62445;48.406;-4.518;2023-04-16T12:02:51;2.50;2.00;2.00
74086;PMS7003;62445;48.406;-4.518;2023-04-16T12:05:33;2.50;2.50;2.00
74086;PMS7003;62445;48.406;-4.518;2023-04-16T12:08:02;4.00;3.00;2.50
74086;PMS7003;62445;48.406;-4.518;2023-04-16T12:10:29;3.75;2.00;2.00
74086;PMS7003;62445;48.406;-4.518;2023-04-16T12:13:08;4.00;2.50;2.00
74086;PMS7003;62445;48.406;-4.518;2023-04-16T12:15:45;2.25;2.25;2.25
74086;PMS7003;62445;48.406;-4.518;2023-04-16T12:18:11;2.00;2.00;2.00
74086;PMS7003;62445;48.406;-4.518;2023-04-16T12:20:38;4.00;2.00;1.75
74086;PMS7003;62445;48.406;-4.518;2023-04-16T12:23:05;2.00;2.00;1.25
74086;PMS7003;62445;48.406;-4.518;2023-04-16T12:25:32;3.00;3.00;2.00
74086;PMS7003;62445;48.406;-4.518;2023-04-16T12:27:58;2.25;2.25;1.75
74086;PMS7003;62445;48.406;-4.518;2023-04-16T12:30:23;2.00;2.00;2.00
74086;PMS7003;62445;48.406;-4.518;2023-04-16T12:32:52;3.00;2.25;2.00
74086;PMS7003;62445;48.406;-4.518;2023-04-16T12:35:38;2.00;2.00;2.00
74086;PMS7003;62445;48.406;-4.518;2023-04-16T12:38:05;2.25;2.25;2.00
74086;PMS7003;62445;48.406;-4.518;2023-04-16T12:40:31;3.00;2.25;2.00
74086;PMS7003;62445;48.406;-4.518;2023-04-16T12:42:56;4.00;3.00;2.25
74086;PMS7003;62445;48.406;-4.518;2023-04-16T12:45:21;2.50;2.50;2.00
74086;PMS7003;62445;48.406;-4.518;2023-04-16T12:47:47;3.00;3.00;2.25
74086;PMS7003;62445;48.406;-4.518;2023-04-16T12:50:14;5.50;3.50;2.75
74086;PMS7003;62445;48.406;-4.518;2023-04-16T12:52:39;3.00;3.00;2.00
74086;PMS7003;62445;48.406;-4.518;2023-04-16T12:55:05;2.00;2.00;2.00
74086;PMS7003;62445;48.406;-4.518;2023-04-16T12:57:31;2.00;2.00;1.50
74086;PMS7003;62445;48.406;-4.518;2023-04-16T12:59:57;3.50;3.50;2.25
74086;PMS7003;62445;48.406;-4.518;2023-04-16T13:02:23;4.00;3.25;3.00
74086;PMS7003;62445;48.406;-4.518;2023-04-16T13:04:49;5.00;3.50;3.00
74086;PMS7003;62445;48.406;-4.518;2023-04-16T13:07:15;3.00;3.00;2.00
74086;PMS7003;62445;48.406;-4.518;2023-04-16T13:09:41;3.25;3.25;2.50
74086;PMS7003;62445;48.406;-4.518;2023-04-16T13:12:07;3.25;3.25;3.00
74086;PMS7003;62445;48.406;-4.518;2023-04-16T13:14:32;4.00;4.00;3.00
74086;PMS7003;62445;48.406;-4.518;2023-04-16T13:16:57;5.75;4.25;3.25
74086;PMS7003;62445;48.406;-4.518;2023-04-16T13:19:23;3.00;2.00;1.25
74086;PMS7003;62445;48.406;-4.518;2023-04-16T13:21:48;3.00;3.00;2.00
74086;PMS7003;62445;48.406;-4.518;2023-04-16T13:24:14;3.75;3.75;2.75
74086;PMS7003;62445;48.406;-4.518;2023-04-16T13:26:39;2.75;2.75;2.00
74086;PMS7003;62445;48.406;-4.518;2023-04-16T13:29:05;5.00;2.25;2.00
74086;PMS7003;62445;48.406;-4.518;2023-04-16T13:31:30;4.00;3.25;3.00
74086;PMS7003;62445;48.406;-4.518;2023-04-16T13:33:55;2.00;1.75;1.75
74086;PMS7003;62445;48.406;-4.518;2023-04-16T13:36:21;5.75;3.50;3.00
74086;PMS7003;62445;48.406;-4.518;2023-04-16T13:38:46;3.00;3.00;2.75
74086;PMS7003;62445;48.406;-4.518;2023-04-16T13:41:12;3.00;3.00;2.00
74086;PMS7003;62445;48.406;-4.518;2023-04-16T13:43:37;5.50;3.75;3.00
74086;PMS7003;62445;48.406;-4.518;2023-04-16T13:46:02;3.00;3.00;3.00
74086;PMS7003;62445;48.406;-4.518;2023-04-16T13:48:28;3.00;3.00;2.25
74086;PMS7003;62445;48.406;-4.518;2023-04-16T13:50:53;4.50;4.00;3.00
74086;PMS7003;62445;48.406;-4.518;2023-04-16T13:53:20;3.25;3.25;3.00
74086;PMS7003;62445;48.406;-4.518;2023-04-16T13:55:46;5.00;4.75;3.00